Time;durP1;ratioP1;P1;durP2;ratioP2;P2;SDS_P1;SDS_P2;PMS_P1;PMS_P2;Temp;Humidity;BMP_temperature;BMP_pressure;BME280_temperature;BME280_humidity;BME280_pressure;Samples;Min_cycle;Max_cycle;Signal;HPM_P1;HPM_P2
2023/11/02 00:01:10;;;;;;;5.47;4.97;;;;;;;;;;5072004;28;20202;-79
2023/11/02 00:03:39;;;;;;;6.73;5.60;;;;;;;;;;5071691;28;20222;-79
2023/11/02 00:06:24;;;;;;;5.70;4.77;;;;;;;;;;5058388;28;20221;-79
2023/11/02 00:09:12;;;;;;;5.80;4.87;;;;;;;;;;5071273;28;20300;-79
2023/11/02 00:11:53;;;;;;;5.93;4.67;;;;;;;;;;5071350;28;20209;-79
2023/11/02 00:14:20;;;;;;;5.93;5.43;;;;;;;;;;5071152;28;20230;-79
2023/11/02 00:16:47;;;;;;;5.97;4.77;;;;;;;;;;5071704;28;20224;-79
2023/11/02 00:19:24;;;;;;;4.77;4.13;;;;;;;;;;5071527;28;20205;-79
2023/11/02 00:21:50;;;;;;;6.40;4.90;;;;;;;;;;5070807;28;20201;-79
2023/11/02 00:24:19;;;;;;;4.63;4.23;;;;;;;;;;5071053;28;20197;-79
2023/11/02 00:26:46;;;;;;;4.93;4.10;;;;;;;;;;5071169;28;20203;-80
2023/11/02 00:29:12;;;;;;;5.93;3.97;;;;;;;;;;5071655;28;20267;-79
2023/11/02 00:31:39;;;;;;;4.93;4.13;;;;;;;;;;5070404;28;20288;-79
2023/11/02 00:34:07;;;;;;;5.83;4.93;;;;;;;;;;5070899;28;20215;-79
2023/11/02 00:36:34;;;;;;;4.23;3.93;;;;;;;;;;5070778;28;20206;-79
2023/11/02 00:39:02;;;;;;;5.87;3.93;;;;;;;;;;5071153;28;20202;-79
2023/11/02 00:41:31;;;;;;;6.60;4.00;;;;;;;;;;5071047;28;20218;-79
2023/11/02 00:43:58;;;;;;;6.07;4.07;;;;;;;;;;5071227;28;20225;-79
2023/11/02 00:46:26;;;;;;;6.00;4.50;;;;;;;;;;5070747;28;20686;-79
2023/11/02 00:48:53;;;;;;;5.30;4.80;;;;;;;;;;5070837;28;20244;-79
2023/11/02 00:51:24;;;;;;;4.17;3.77;;;;;;;;;;5070883;28;20226;-79
2023/11/02 00:53:54;;;;;;;5.97;3.97;;;;;;;;;;5070356;28;20665;-79
2023/11/02 00:56:24;;;;;;;4.93;4.23;;;;;;;;;;5070519;28;20193;-79
2023/11/02 00:58:53;;;;;;;4.33;3.93;;;;;;;;;;5071105;28;20206;-79
2023/11/02 01:01:21;;;;;;;4.77;4.03;;;;;;;;;;5070292;28;20206;-79
2023/11/02 01:03:51;;;;;;;4.93;4.43;;;;;;;;;;5070401;28;20294;-79
2023/11/02 01:06:21;;;;;;;5.10;4.23;;;;;;;;;;5070752;28;20208;-79
2023/11/02 01:08:58;;;;;;;6.73;4.70;;;;;;;;;;5070915;28;20208;-79
2023/11/02 01:11:30;;;;;;;4.80;4.30;;;;;;;;;;5070809;28;20558;-79
2023/11/02 01:13:59;;;;;;;7.47;4.77;;;;;;;;;;5068644;28;20233;-79
2023/11/02 01:16:27;;;;;;;5.80;4.40;;;;;;;;;;5060400;28;20693;-78
2023/11/02 01:18:56;;;;;;;5.40;4.70;;;;;;;;;;5070850;28;20259;-79
2023/11/02 01:21:23;;;;;;;5.67;4.20;;;;;;;;;;5070363;28;20212;-79
2023/11/02 01:24:01;;;;;;;4.20;3.90;;;;;;;;;;5070408;28;20202;-79
2023/11/02 01:27:04;;;;;;;5.33;4.83;;;;;;;;;;5070684;28;20198;-79
2023/11/02 01:29:34;;;;;;;4.30;3.93;;;;;;;;;;5059049;28;20202;-79
2023/11/02 01:32:03;;;;;;;6.90;5.53;;;;;;;;;;5070190;28;20201;-79
2023/11/02 01:34:30;;;;;;;5.30;4.00;;;;;;;;;;5070369;28;20590;-79
2023/11/02 01:36:57;;;;;;;6.03;5.43;;;;;;;;;;5072038;28;20193;-79
2023/11/02 01:40:04;;;;;;;5.33;4.83;;;;;;;;;;5074559;28;20702;-79
2023/11/02 01:42:42;;;;;;;8.03;4.93;;;;;;;;;;5064126;28;20690;-79
2023/11/02 01:45:13;;;;;;;4.73;4.27;;;;;;;;;;5074486;28;20273;-79
2023/11/02 01:47:50;;;;;;;4.40;4.00;;;;;;;;;;5073826;28;20238;-80
2023/11/02 01:50:24;;;;;;;7.70;4.40;;;;;;;;;;5074404;28;20226;-80
2023/11/02 01:53:01;;;;;;;6.77;5.50;;;;;;;;;;5073298;28;20224;-81
2023/11/02 01:55:36;;;;;;;4.57;4.03;;;;;;;;;;5074014;28;20684;-80
2023/11/02 02:01:27;;;;;;;4.67;4.20;;;;;;;;;;5073978;28;20251;-80
2023/11/02 02:04:03;;;;;;;6.33;4.47;;;;;;;;;;5073751;28;20234;-81
2023/11/02 02:06:38;;;;;;;5.30;4.80;;;;;;;;;;5073664;28;20242;-80
2023/11/02 02:09:21;;;;;;;7.90;4.53;;;;;;;;;;5073789;28;20201;-80
2023/11/02 02:11:58;;;;;;;4.23;3.80;;;;;;;;;;5074116;28;20198;-79
2023/11/02 02:14:28;;;;;;;5.13;4.37;;;;;;;;;;5060468;28;20198;-80
2023/11/02 02:17:06;;;;;;;4.40;3.50;;;;;;;;;;5073205;28;20201;-80
2023/11/02 02:19:50;;;;;;;4.37;3.90;;;;;;;;;;5073684;28;20213;-80
2023/11/02 02:22:19;;;;;;;4.00;3.60;;;;;;;;;;5073475;28;20201;-80
2023/11/02 02:24:54;;;;;;;5.67;4.23;;;;;;;;;;5073431;28;20210;-80
2023/11/02 02:27:53;;;;;;;4.30;4.00;;;;;;;;;;5073590;28;20206;-80
2023/11/02 02:30:41;;;;;;;5.63;4.10;;;;;;;;;;5073627;28;20676;-80
2023/11/02 02:33:29;;;;;;;6.27;3.90;;;;;;;;;;5072682;28;20222;-80
2023/11/02 02:36:02;;;;;;;5.97;4.33;;;;;;;;;;5073751;28;20206;-80
2023/11/02 02:38:37;;;;;;;6.80;4.40;;;;;;;;;;5072959;28;20197;-80
2023/11/02 02:41:09;;;;;;;5.37;4.10;;;;;;;;;;5073224;28;20616;-80
2023/11/02 02:43:36;;;;;;;5.27;4.03;;;;;;;;;;5053191;28;20210;-80
2023/11/02 02:46:04;;;;;;;8.13;4.40;;;;;;;;;;5066996;28;20235;-80
2023/11/02 02:48:31;;;;;;;6.60;3.90;;;;;;;;;;5059014;28;20201;-80
2023/11/02 02:51:03;;;;;;;6.60;4.63;;;;;;;;;;5072853;28;20260;-80
2023/11/02 02:53:32;;;;;;;3.77;3.47;;;;;;;;;;5073118;28;20316;-80
2023/11/02 02:56:06;;;;;;;4.30;3.90;;;;;;;;;;5072666;28;20201;-77
2023/11/02 02:58:35;;;;;;;5.80;4.13;;;;;;;;;;5072951;28;20197;-77
2023/11/02 03:01:05;;;;;;;7.93;4.30;;;;;;;;;;5073067;28;20208;-77
2023/11/02 03:03:33;;;;;;;4.03;3.60;;;;;;;;;;5072674;28;20240;-77
2023/11/02 03:06:01;;;;;;;4.60;4.07;;;;;;;;;;5073036;28;20205;-77
2023/11/02 03:08:29;;;;;;;6.00;3.87;;;;;;;;;;5072364;28;20201;-77
2023/11/02 03:10:56;;;;;;;5.17;4.07;;;;;;;;;;5072963;28;20199;-77
2023/11/02 03:13:23;;;;;;;5.43;3.63;;;;;;;;;;5072674;28;20235;-77
2023/11/02 03:15:52;;;;;;;4.33;3.73;;;;;;;;;;5072856;28;20204;-77
2023/11/02 03:18:21;;;;;;;7.30;4.40;;;;;;;;;;5072577;28;20752;-77
2023/11/02 03:20:49;;;;;;;3.73;3.43;;;;;;;;;;5072830;28;20201;-77
2023/11/02 03:23:27;;;;;;;5.77;3.60;;;;;;;;;;5072411;28;20209;-77
2023/11/02 03:26:00;;;;;;;5.27;3.67;;;;;;;;;;5059626;28;20565;-79
2023/11/02 03:28:40;;;;;;;4.40;3.97;;;;;;;;;;5071859;28;20664;-77
2023/11/02 03:31:16;;;;;;;4.33;3.70;;;;;;;;;;5072558;28;20205;-76
2023/11/02 03:33:49;;;;;;;4.87;4.07;;;;;;;;;;5072217;28;20220;-77
2023/11/02 03:36:20;;;;;;;5.43;4.30;;;;;;;;;;5065658;28;20204;-77
2023/11/02 03:39:02;;;;;;;5.40;3.83;;;;;;;;;;5058753;28;20394;-77
2023/11/02 03:41:42;;;;;;;4.30;3.73;;;;;;;;;;5070251;28;20205;-77
2023/11/02 03:44:14;;;;;;;5.07;4.33;;;;;;;;;;5065502;28;20202;-77
2023/11/02 03:46:46;;;;;;;6.27;3.70;;;;;;;;;;5063007;28;20215;-77
2023/11/02 03:49:20;;;;;;;4.73;3.90;;;;;;;;;;5064290;28;20204;-77
2023/11/02 03:51:50;;;;;;;5.30;4.27;;;;;;;;;;5071886;28;20307;-77
2023/11/02 03:54:29;;;;;;;4.00;3.60;;;;;;;;;;5071608;28;20594;-77
2023/11/02 03:57:05;;;;;;;4.70;3.73;;;;;;;;;;5071692;28;20205;-77
2023/11/02 03:59:35;;;;;;;4.07;3.67;;;;;;;;;;5071574;28;20695;-77
2023/11/02 04:02:06;;;;;;;4.13;3.73;;;;;;;;;;5071501;28;20695;-77
2023/11/02 04:04:38;;;;;;;4.20;3.90;;;;;;;;;;5072169;28;20217;-77
2023/11/02 04:07:13;;;;;;;3.70;3.40;;;;;;;;;;5071592;28;20219;-77
2023/11/02 04:09:48;;;;;;;4.77;4.33;;;;;;;;;;5072016;28;20219;-77
2023/11/02 04:12:22;;;;;;;5.03;4.53;;;;;;;;;;5058761;28;20482;-77
2023/11/02 04:14:49;;;;;;;6.13;3.63;;;;;;;;;;5071667;28;20228;-77
2023/11/02 04:17:16;;;;;;;4.63;4.20;;;;;;;;;;5070885;28;20216;-76
2023/11/02 04:19:44;;;;;;;4.40;3.97;;;;;;;;;;5066238;28;20224;-76
2023/11/02 04:22:11;;;;;;;6.10;4.53;;;;;;;;;;5071197;28;20212;-76
2023/11/02 04:24:38;;;;;;;10.27;5.67;;;;;;;;;;5071513;28;20201;-75
2023/11/02 04:27:06;;;;;;;5.00;4.03;;;;;;;;;;5070680;28;20263;-75
2023/11/02 04:29:33;;;;;;;6.43;3.90;;;;;;;;;;5071161;28;20201;-75
2023/11/02 04:31:59;;;;;;;6.87;6.27;;;;;;;;;;5057744;28;20618;-76
2023/11/02 04:34:26;;;;;;;10.30;7.03;;;;;;;;;;5071060;28;20231;-78
2023/11/02 04:36:53;;;;;;;6.70;4.87;;;;;;;;;;5068747;28;20671;-76
2023/11/02 04:39:21;;;;;;;14.73;12.97;;;;;;;;;;5071399;28;20292;-76
2023/11/02 04:41:48;;;;;;;7.83;5.97;;;;;;;;;;5070370;28;20683;-76
2023/11/02 04:44:19;;;;;;;3.87;3.53;;;;;;;;;;5071113;28;20212;-77
2023/11/02 04:46:46;;;;;;;3.50;3.20;;;;;;;;;;5069921;28;20605;-76
2023/11/02 04:49:13;;;;;;;5.50;3.30;;;;;;;;;;5071080;28;20590;-76
2023/11/02 04:51:40;;;;;;;6.67;3.50;;;;;;;;;;5070573;28;20699;-76
2023/11/02 04:54:07;;;;;;;6.43;3.40;;;;;;;;;;5070801;28;20668;-80
2023/11/02 04:56:35;;;;;;;5.00;3.27;;;;;;;;;;5070310;28;20197;-75
2023/11/02 04:59:01;;;;;;;3.80;3.33;;;;;;;;;;5070678;28;20205;-75
2023/11/02 05:01:30;;;;;;;4.17;3.60;;;;;;;;;;5057487;28;20741;-76
2023/11/02 05:03:59;;;;;;;3.97;3.47;;;;;;;;;;5069323;28;20208;-75
2023/11/02 05:06:26;;;;;;;3.60;3.30;;;;;;;;;;5070804;28;20201;-77
2023/11/02 05:08:55;;;;;;;7.77;4.17;;;;;;;;;;5070707;28;20687;-77
2023/11/02 05:11:22;;;;;;;3.77;3.47;;;;;;;;;;5066500;28;20205;-77
2023/11/02 05:13:49;;;;;;;3.30;2.93;;;;;;;;;;5070417;28;20729;-77
2023/11/02 05:16:15;;;;;;;4.77;2.77;;;;;;;;;;5070509;28;20212;-77
2023/11/02 05:18:44;;;;;;;4.73;3.27;;;;;;;;;;5070905;28;20228;-78
2023/11/02 05:21:10;;;;;;;4.87;3.67;;;;;;;;;;5050375;28;20291;-78
2023/11/02 05:23:37;;;;;;;4.27;3.87;;;;;;;;;;5051785;28;20213;-79
2023/11/02 05:26:05;;;;;;;3.70;3.33;;;;;;;;;;5068773;28;20193;-79
2023/11/02 05:28:32;;;;;;;4.83;3.30;;;;;;;;;;5070116;28;20201;-78
2023/11/02 05:30:59;;;;;;;2.97;2.77;;;;;;;;;;5062232;28;20282;-78
2023/11/02 05:33:26;;;;;;;2.97;2.70;;;;;;;;;;5056853;28;20691;-79
2023/11/02 05:35:54;;;;;;;4.43;3.27;;;;;;;;;;5065665;28;20208;-78
2023/11/02 05:38:21;;;;;;;3.60;2.57;;;;;;;;;;5066373;28;20247;-78
2023/11/02 05:40:48;;;;;;;4.10;3.13;;;;;;;;;;5062098;28;20248;-80
2023/11/02 05:43:15;;;;;;;4.73;3.67;;;;;;;;;;5067799;28;20633;-78
2023/11/02 05:45:42;;;;;;;9.73;4.40;;;;;;;;;;5069480;28;20200;-78
2023/11/02 05:48:08;;;;;;;2.20;2.10;;;;;;;;;;5068951;28;20743;-78
2023/11/02 05:50:36;;;;;;;5.20;3.03;;;;;;;;;;5068678;28;20904;-78
2023/11/02 05:53:04;;;;;;;7.73;2.97;;;;;;;;;;5069697;28;20204;-78
2023/11/02 05:55:31;;;;;;;3.20;2.90;;;;;;;;;;5070227;28;20314;-78
2023/11/02 05:57:58;;;;;;;3.50;3.20;;;;;;;;;;5070405;28;20212;-78
2023/11/02 06:00:25;;;;;;;2.87;2.57;;;;;;;;;;5069878;28;20204;-78
2023/11/02 06:02:51;;;;;;;3.40;2.70;;;;;;;;;;5069761;28;20208;-78
2023/11/02 06:05:18;;;;;;;4.33;3.13;;;;;;;;;;5069779;28;20197;-78
2023/11/02 06:07:46;;;;;;;3.03;2.73;;;;;;;;;;5069961;28;20653;-78
2023/11/02 06:10:14;;;;;;;3.27;2.87;;;;;;;;;;5069711;28;20200;-78
2023/11/02 06:12:40;;;;;;;4.43;3.60;;;;;;;;;;5069463;28;20667;-78
2023/11/02 06:15:09;;;;;;;9.47;3.37;;;;;;;;;;5070054;28;20683;-78
2023/11/02 06:17:36;;;;;;;3.10;2.80;;;;;;;;;;5069592;28;20696;-78
2023/11/02 06:20:06;;;;;;;9.97;3.10;;;;;;;;;;5069898;28;20660;-78
2023/11/02 06:22:32;;;;;;;5.07;3.50;;;;;;;;;;5070612;28;20233;-78
2023/11/02 06:24:59;;;;;;;3.47;3.17;;;;;;;;;;5073759;28;20205;-78
2023/11/02 06:27:27;;;;;;;4.07;3.30;;;;;;;;;;5073590;28;20676;-78
2023/11/02 06:29:54;;;;;;;4.17;2.93;;;;;;;;;;5073548;28;20649;-78
2023/11/02 06:32:21;;;;;;;9.47;3.03;;;;;;;;;;5073324;28;20201;-78
2023/11/02 06:34:48;;;;;;;8.13;3.47;;;;;;;;;;5073156;28;20229;-78
2023/11/02 06:37:18;;;;;;;5.10;4.10;;;;;;;;;;5073455;28;20201;-78
2023/11/02 06:39:45;;;;;;;10.80;3.67;;;;;;;;;;5073623;28;20211;-78
2023/11/02 06:42:13;;;;;;;6.87;3.43;;;;;;;;;;5073330;28;20201;-78
2023/11/02 06:44:43;;;;;;;7.80;4.33;;;;;;;;;;5073074;28;20216;-78
2023/11/02 06:47:10;;;;;;;4.67;3.30;;;;;;;;;;5073294;28;20216;-78
2023/11/02 06:49:37;;;;;;;6.00;3.57;;;;;;;;;;5073205;28;20201;-78
2023/11/02 06:52:04;;;;;;;4.73;3.87;;;;;;;;;;5073310;28;20202;-78
2023/11/02 06:54:31;;;;;;;6.90;4.00;;;;;;;;;;5072559;28;20221;-79
2023/11/02 06:56:59;;;;;;;4.63;3.30;;;;;;;;;;5072963;28;20615;-78
2023/11/02 06:59:25;;;;;;;4.97;3.60;;;;;;;;;;5072926;28;20197;-78
2023/11/02 07:01:54;;;;;;;9.43;4.83;;;;;;;;;;5072441;28;20266;-78
2023/11/02 07:04:21;;;;;;;7.33;4.80;;;;;;;;;;5072899;28;20201;-78
2023/11/02 07:06:48;;;;;;;6.27;3.90;;;;;;;;;;5073055;28;20205;-78
2023/11/02 07:09:15;;;;;;;10.50;3.60;;;;;;;;;;5073013;28;20208;-78
2023/11/02 07:11:42;;;;;;;7.43;4.40;;;;;;;;;;5072619;28;20286;-76
2023/11/02 07:14:09;;;;;;;9.00;3.63;;;;;;;;;;5072878;28;20243;-75
2023/11/02 07:16:36;;;;;;;8.93;3.33;;;;;;;;;;5072605;28;20684;-76
2023/11/02 07:19:05;;;;;;;7.83;4.50;;;;;;;;;;5072378;28;20198;-76
2023/11/02 07:21:32;;;;;;;4.90;4.40;;;;;;;;;;5072167;28;20209;-76
2023/11/02 07:23:59;;;;;;;9.90;3.73;;;;;;;;;;5072962;28;20263;-75
2023/11/02 07:26:26;;;;;;;6.53;4.67;;;;;;;;;;5072195;28;20327;-76
2023/11/02 07:28:53;;;;;;;5.70;4.73;;;;;;;;;;5072362;28;20197;-75
2023/11/02 07:31:20;;;;;;;3.77;3.33;;;;;;;;;;5072533;28;20213;-75
2023/11/02 07:33:47;;;;;;;7.87;3.47;;;;;;;;;;5071653;28;20197;-76
2023/11/02 07:36:18;;;;;;;5.47;3.27;;;;;;;;;;5072559;28;20201;-76
2023/11/02 07:38:45;;;;;;;6.97;3.77;;;;;;;;;;5071905;28;20201;-75
2023/11/02 07:41:12;;;;;;;7.07;3.80;;;;;;;;;;5072333;28;20205;-76
2023/11/02 07:43:39;;;;;;;3.23;2.93;;;;;;;;;;5059265;28;20593;-76
2023/11/02 07:46:06;;;;;;;12.50;5.20;;;;;;;;;;5071714;28;20205;-76
2023/11/02 07:48:33;;;;;;;8.57;4.67;;;;;;;;;;5072136;28;20213;-76
2023/11/02 07:51:00;;;;;;;4.90;3.50;;;;;;;;;;5072562;28;20228;-78
2023/11/02 07:53:28;;;;;;;7.43;5.47;;;;;;;;;;5072036;28;20735;-78
2023/11/02 07:55:54;;;;;;;3.87;3.00;;;;;;;;;;5071546;28;20224;-78
2023/11/02 07:58:22;;;;;;;3.30;2.80;;;;;;;;;;5072161;28;20212;-78
2023/11/02 08:00:49;;;;;;;3.17;2.97;;;;;;;;;;5072193;28;20293;-78
2023/11/02 08:03:16;;;;;;;7.90;3.97;;;;;;;;;;5071517;28;20208;-78
2023/11/02 08:05:42;;;;;;;4.80;3.90;;;;;;;;;;5071418;28;20201;-78
2023/11/02 08:08:09;;;;;;;3.20;2.90;;;;;;;;;;5071615;28;20622;-78
2023/11/02 08:10:37;;;;;;;10.03;3.60;;;;;;;;;;5071511;28;20618;-78
2023/11/02 08:13:04;;;;;;;3.90;3.60;;;;;;;;;;5071595;28;20582;-78
2023/11/02 08:15:31;;;;;;;5.87;3.30;;;;;;;;;;5071179;28;20268;-78
2023/11/02 08:17:57;;;;;;;5.77;3.30;;;;;;;;;;5071542;28;20201;-78
2023/11/02 08:20:24;;;;;;;3.43;3.13;;;;;;;;;;5071362;28;20228;-78
2023/11/02 08:22:51;;;;;;;4.27;3.87;;;;;;;;;;5071529;28;20566;-78
2023/11/02 08:25:18;;;;;;;5.17;4.10;;;;;;;;;;5070843;28;20209;-78
2023/11/02 08:27:47;;;;;;;5.70;3.83;;;;;;;;;;5071247;28;20729;-78
2023/11/02 08:30:15;;;;;;;4.73;3.27;;;;;;;;;;5071517;28;20193;-78
2023/11/02 08:32:42;;;;;;;6.50;3.43;;;;;;;;;;5071273;28;20201;-78
2023/11/02 08:35:09;;;;;;;12.63;4.40;;;;;;;;;;5071054;28;20236;-78
2023/11/02 08:37:36;;;;;;;13.90;5.10;;;;;;;;;;5070973;28;20212;-78
2023/11/02 08:40:05;;;;;;;11.03;4.17;;;;;;;;;;5070582;28;20203;-78
2023/11/02 08:42:32;;;;;;;7.23;3.90;;;;;;;;;;5070886;28;20699;-78
2023/11/02 08:45:00;;;;;;;12.53;4.43;;;;;;;;;;5070699;28;20202;-78
2023/11/02 08:47:27;;;;;;;9.80;4.40;;;;;;;;;;5069947;28;20699;-78
2023/11/02 08:49:54;;;;;;;6.67;4.30;;;;;;;;;;5071035;28;20203;-78
2023/11/02 08:52:22;;;;;;;10.97;4.70;;;;;;;;;;5070726;28;20206;-78
2023/11/02 08:54:48;;;;;;;12.70;5.17;;;;;;;;;;5070659;28;20673;-78
2023/11/02 08:57:15;;;;;;;5.60;4.83;;;;;;;;;;5070486;28;20209;-78
2023/11/02 08:59:42;;;;;;;4.97;4.47;;;;;;;;;;5070878;28;20210;-78
2023/11/02 09:02:10;;;;;;;11.73;5.37;;;;;;;;;;5070501;28;20206;-78
2023/11/02 09:04:37;;;;;;;5.50;4.63;;;;;;;;;;5070477;28;20206;-78
2023/11/02 09:07:04;;;;;;;5.93;5.10;;;;;;;;;;5070632;28;20202;-79
2023/11/02 09:09:31;;;;;;;6.13;4.40;;;;;;;;;;5070523;28;20206;-80
2023/11/02 09:11:58;;;;;;;8.73;5.27;;;;;;;;;;5070919;28;20205;-78
2023/11/02 09:14:25;;;;;;;5.43;4.33;;;;;;;;;;5070584;28;20674;-78
2023/11/02 09:16:52;;;;;;;5.27;4.77;;;;;;;;;;5070168;28;20265;-80
2023/11/02 09:19:20;;;;;;;5.67;5.07;;;;;;;;;;5057879;28;20202;-78
2023/11/02 09:21:48;;;;;;;7.20;4.40;;;;;;;;;;5070870;28;20614;-78
2023/11/02 09:24:15;;;;;;;10.43;4.40;;;;;;;;;;5070335;28;20290;-78
2023/11/02 09:26:42;;;;;;;6.73;4.60;;;;;;;;;;5070614;28;20197;-79
2023/11/02 09:29:09;;;;;;;4.63;4.20;;;;;;;;;;5070663;28;20203;-78
2023/11/02 09:31:36;;;;;;;4.43;4.03;;;;;;;;;;5070297;28;20320;-78
2023/11/02 09:34:03;;;;;;;4.70;4.30;;;;;;;;;;5070520;28;20584;-79
2023/11/02 09:36:31;;;;;;;9.83;5.07;;;;;;;;;;5070089;28;20316;-78
2023/11/02 09:38:59;;;;;;;5.07;4.53;;;;;;;;;;5070508;28;20622;-78
2023/11/02 09:41:26;;;;;;;7.77;4.73;;;;;;;;;;5070297;28;20194;-78
2023/11/02 09:43:53;;;;;;;6.17;4.87;;;;;;;;;;5070437;28;20677;-76
2023/11/02 09:46:20;;;;;;;7.63;4.63;;;;;;;;;;5070344;28;20205;-76
2023/11/02 09:48:46;;;;;;;7.50;5.30;;;;;;;;;;5070421;28;20213;-75
2023/11/02 09:51:13;;;;;;;5.03;3.63;;;;;;;;;;5070388;28;20224;-75
2023/11/02 09:53:42;;;;;;;5.90;3.90;;;;;;;;;;5070230;28;20209;-75
2023/11/02 09:56:09;;;;;;;5.17;4.27;;;;;;;;;;5069887;28;20217;-76
2023/11/02 09:58:36;;;;;;;4.47;4.07;;;;;;;;;;5073149;28;20288;-76
2023/11/02 10:01:04;;;;;;;16.43;4.93;;;;;;;;;;5074261;28;20198;-75
2023/11/02 10:03:30;;;;;;;10.47;6.07;;;;;;;;;;5073956;28;20222;-76
2023/11/02 10:05:58;;;;;;;4.87;4.20;;;;;;;;;;5074454;28;20576;-75
2023/11/02 10:08:25;;;;;;;7.20;4.60;;;;;;;;;;5073883;28;20223;-75
2023/11/02 10:11:09;;;;;;;5.27;4.87;;;;;;;;;;5073671;28;20399;-76
2023/11/02 10:13:36;;;;;;;4.30;3.87;;;;;;;;;;5073599;28;20201;-76
2023/11/02 10:16:03;;;;;;;7.13;6.50;;;;;;;;;;5073993;28;20217;-78
2023/11/02 10:18:30;;;;;;;9.20;7.53;;;;;;;;;;5073482;28;20228;-76
2023/11/02 10:20:57;;;;;;;6.27;4.63;;;;;;;;;;5073842;28;20198;-75
2023/11/02 10:23:24;;;;;;;7.30;5.20;;;;;;;;;;5073559;28;20258;-76
2023/11/02 10:25:52;;;;;;;4.57;3.93;;;;;;;;;;5074261;28;20654;-76
2023/11/02 10:28:19;;;;;;;5.20;4.17;;;;;;;;;;5073372;28;20202;-76
2023/11/02 10:30:46;;;;;;;10.90;9.23;;;;;;;;;;5073415;28;20202;-76
2023/11/02 10:33:14;;;;;;;4.63;3.90;;;;;;;;;;5073616;28;20645;-76
2023/11/02 10:35:42;;;;;;;5.40;4.57;;;;;;;;;;5073353;28;20620;-76
2023/11/02 10:38:09;;;;;;;6.73;4.50;;;;;;;;;;5073003;28;20289;-76
2023/11/02 10:40:43;;;;;;;8.33;4.07;;;;;;;;;;5073795;28;20275;-76
2023/11/02 10:43:17;;;;;;;8.53;6.70;;;;;;;;;;5073288;28;20586;-76
2023/11/02 10:45:48;;;;;;;4.53;3.83;;;;;;;;;;5073749;28;20294;-76
2023/11/02 10:48:17;;;;;;;5.83;4.40;;;;;;;;;;5072915;28;20201;-76
2023/11/02 10:50:45;;;;;;;5.63;4.90;;;;;;;;;;5073586;28;20320;-76
2023/11/02 10:53:18;;;;;;;7.70;4.30;;;;;;;;;;5073006;28;20293;-76
2023/11/02 10:55:46;;;;;;;7.37;4.40;;;;;;;;;;5073276;28;20225;-77
2023/11/02 10:58:14;;;;;;;11.03;9.00;;;;;;;;;;5072830;28;20205;-76
2023/11/02 11:00:42;;;;;;;11.63;8.73;;;;;;;;;;5073599;28;20205;-76
2023/11/02 11:03:10;;;;;;;8.13;6.97;;;;;;;;;;5072703;28;20197;-76
2023/11/02 11:05:37;;;;;;;7.03;5.70;;;;;;;;;;5072642;28;20298;-76
2023/11/02 11:08:07;;;;;;;10.33;7.47;;;;;;;;;;5073080;28;20201;-76
2023/11/02 11:10:34;;;;;;;6.77;4.93;;;;;;;;;;5072045;28;20204;-76
2023/11/02 11:13:02;;;;;;;5.07;4.60;;;;;;;;;;5072450;28;20209;-76
2023/11/02 11:15:31;;;;;;;10.03;6.00;;;;;;;;;;5073134;28;20310;-76
2023/11/02 11:17:58;;;;;;;8.10;5.93;;;;;;;;;;5072987;28;20206;-76
2023/11/02 11:20:25;;;;;;;5.60;4.40;;;;;;;;;;5072243;28;20300;-76
2023/11/02 11:22:52;;;;;;;6.33;5.67;;;;;;;;;;5072790;28;20607;-76
2023/11/02 11:25:19;;;;;;;9.70;5.50;;;;;;;;;;5072842;28;20215;-76
2023/11/02 11:27:47;;;;;;;17.67;6.97;;;;;;;;;;5072514;28;20203;-76
2023/11/02 11:30:37;;;;;;;13.40;5.83;;;;;;;;;;5072303;28;20200;-76
2023/11/02 11:33:04;;;;;;;10.33;6.07;;;;;;;;;;5072321;28;20197;-76
2023/11/02 11:35:32;;;;;;;13.37;5.83;;;;;;;;;;5072367;28;20312;-76
2023/11/02 11:38:00;;;;;;;6.80;5.80;;;;;;;;;;5072496;28;20198;-76
2023/11/02 11:40:36;;;;;;;8.60;5.93;;;;;;;;;;5071931;28;20681;-76
2023/11/02 11:43:12;;;;;;;7.60;6.70;;;;;;;;;;5072335;28;20223;-76
2023/11/02 11:45:50;;;;;;;12.00;5.70;;;;;;;;;;5072304;28;20212;-76
2023/11/02 11:48:36;;;;;;;11.00;7.70;;;;;;;;;;5071846;28;20241;-76
2023/11/02 11:51:41;;;;;;;13.57;6.13;;;;;;;;;;5072044;28;20265;-76
2023/11/02 11:54:10;;;;;;;10.87;6.37;;;;;;;;;;5072496;28;20205;-76
2023/11/02 11:56:38;;;;;;;16.30;7.70;;;;;;;;;;5072366;28;20232;-76
2023/11/02 11:59:04;;;;;;;12.20;6.83;;;;;;;;;;5072230;28;20202;-76
2023/11/02 12:01:33;;;;;;;9.30;7.67;;;;;;;;;;5071344;28;20212;-76
2023/11/02 12:03:59;;;;;;;17.43;12.03;;;;;;;;;;5072002;28;20591;-76
2023/11/02 12:06:39;;;;;;;11.87;9.40;;;;;;;;;;5071753;28;20208;-76
2023/11/02 12:09:09;;;;;;;15.53;8.97;;;;;;;;;;5071955;28;20212;-76
2023/11/02 12:11:36;;;;;;;11.33;7.53;;;;;;;;;;5071872;28;20293;-76
2023/11/02 12:14:14;;;;;;;11.70;8.97;;;;;;;;;;5071498;28;20206;-76
2023/11/02 12:16:43;;;;;;;16.03;7.70;;;;;;;;;;5071704;28;20235;-76
2023/11/02 12:19:10;;;;;;;17.30;9.07;;;;;;;;;;5070951;28;20198;-77
2023/11/02 12:21:38;;;;;;;12.10;8.17;;;;;;;;;;5071042;28;20760;-76
2023/11/02 12:24:10;;;;;;;14.87;10.80;;;;;;;;;;5071147;28;20203;-75
2023/11/02 12:26:36;;;;;;;14.27;10.73;;;;;;;;;;5071365;28;20567;-76
2023/11/02 12:29:07;;;;;;;25.90;15.03;;;;;;;;;;5071753;28;20721;-77
2023/11/02 12:31:35;;;;;;;24.33;15.20;;;;;;;;;;5071159;28;20232;-76
2023/11/02 12:34:06;;;;;;;25.60;14.87;;;;;;;;;;5071296;28;20206;-76
2023/11/02 12:36:33;;;;;;;24.00;16.07;;;;;;;;;;5070411;28;20765;-77
2023/11/02 12:39:00;;;;;;;26.20;15.07;;;;;;;;;;5071420;28;20197;-76
2023/11/02 12:41:27;;;;;;;26.03;13.27;;;;;;;;;;5070609;28;20208;-76
2023/11/02 12:44:02;;;;;;;17.43;12.60;;;;;;;;;;5070988;28;20203;-76
2023/11/02 12:46:29;;;;;;;14.33;11.03;;;;;;;;;;5070544;28;20238;-76
2023/11/02 12:48:56;;;;;;;14.13;10.50;;;;;;;;;;5071206;28;20255;-76
2023/11/02 12:51:24;;;;;;;15.73;10.47;;;;;;;;;;5070848;28;20228;-76
2023/11/02 12:53:52;;;;;;;18.17;11.20;;;;;;;;;;5071181;28;20210;-76
2023/11/02 12:56:22;;;;;;;19.97;12.97;;;;;;;;;;5070549;28;20621;-76
2023/11/02 12:58:57;;;;;;;23.40;12.60;;;;;;;;;;5071095;28;20610;-76
2023/11/02 13:01:44;;;;;;;15.53;11.00;;;;;;;;;;5070727;28;20231;-77
2023/11/02 13:04:11;;;;;;;16.17;11.50;;;;;;;;;;5070849;28;20206;-77
2023/11/02 13:06:40;;;;;;;19.23;12.23;;;;;;;;;;5070869;28;20201;-77
2023/11/02 13:09:07;;;;;;;15.17;10.47;;;;;;;;;;5070752;28;20204;-76
2023/11/02 13:11:34;;;;;;;18.00;13.57;;;;;;;;;;5070835;28;20201;-77
2023/11/02 13:14:01;;;;;;;17.23;11.50;;;;;;;;;;5070018;28;20345;-76
2023/11/02 13:16:29;;;;;;;14.47;10.57;;;;;;;;;;5070562;28;20814;-76
2023/11/02 13:18:56;;;;;;;17.53;10.90;;;;;;;;;;5070577;28;20289;-76
2023/11/02 13:21:23;;;;;;;16.20;11.73;;;;;;;;;;5070760;28;20203;-76
2023/11/02 13:23:53;;;;;;;16.47;12.27;;;;;;;;;;5070226;28;20192;-77
2023/11/02 13:26:21;;;;;;;16.63;10.80;;;;;;;;;;5070675;28;20202;-77
2023/11/02 13:28:48;;;;;;;15.53;10.60;;;;;;;;;;5070529;28;20231;-76
2023/11/02 13:31:15;;;;;;;21.23;11.73;;;;;;;;;;5070775;28;20203;-77
2023/11/02 13:33:43;;;;;;;16.80;11.03;;;;;;;;;;5074159;28;20204;-77
2023/11/02 13:36:10;;;;;;;12.27;10.27;;;;;;;;;;5074517;28;20221;-76
2023/11/02 13:38:37;;;;;;;16.00;11.57;;;;;;;;;;5074455;28;20201;-76
2023/11/02 13:41:06;;;;;;;19.67;10.47;;;;;;;;;;5075058;28;20247;-76
2023/11/02 13:43:33;;;;;;;15.57;13.03;;;;;;;;;;5060892;28;20236;-77
2023/11/02 13:46:00;;;;;;;21.73;19.47;;;;;;;;;;5074749;28;20219;-76
2023/11/02 13:48:26;;;;;;;27.23;20.10;;;;;;;;;;5074339;28;20677;-77
2023/11/02 13:50:53;;;;;;;32.83;27.60;;;;;;;;;;5074578;28;20262;-77
2023/11/02 13:53:22;;;;;;;14.73;13.03;;;;;;;;;;5061282;28;20215;-77
2023/11/02 13:55:49;;;;;;;33.60;25.07;;;;;;;;;;5074009;28;20741;-77
2023/11/02 13:58:17;;;;;;;31.47;21.90;;;;;;;;;;5074168;28;20202;-77
2023/11/02 14:00:44;;;;;;;26.13;17.97;;;;;;;;;;5074055;28;20686;-77
2023/11/02 14:03:11;;;;;;;21.43;15.83;;;;;;;;;;5074425;28;20237;-76
2023/11/02 14:05:38;;;;;;;22.97;14.07;;;;;;;;;;5073747;28;20201;-77
2023/11/02 14:08:06;;;;;;;28.00;21.77;;;;;;;;;;5073890;28;20683;-77
2023/11/02 14:10:32;;;;;;;34.07;24.13;;;;;;;;;;5073767;28;20210;-77
2023/11/02 14:13:00;;;;;;;27.83;20.93;;;;;;;;;;5074032;28;20194;-76
2023/11/02 14:15:29;;;;;;;26.00;19.33;;;;;;;;;;5074191;28;20212;-77
2023/11/02 14:17:56;;;;;;;24.20;19.60;;;;;;;;;;5073648;28;20224;-76
2023/11/02 14:20:25;;;;;;;20.67;16.43;;;;;;;;;;5073749;28;20573;-77
2023/11/02 14:22:52;;;;;;;31.23;22.30;;;;;;;;;;5073493;28;20212;-76
2023/11/02 14:25:18;;;;;;;17.03;12.77;;;;;;;;;;5074023;28;20200;-76
2023/11/02 14:27:47;;;;;;;15.03;13.17;;;;;;;;;;5073638;28;20209;-77
2023/11/02 14:30:15;;;;;;;14.53;9.87;;;;;;;;;;5074037;28;20212;-78
2023/11/02 14:32:44;;;;;;;15.30;11.03;;;;;;;;;;5073212;28;20207;-76
2023/11/02 14:35:11;;;;;;;15.77;13.53;;;;;;;;;;5073439;28;20681;-76
2023/11/02 14:37:37;;;;;;;11.67;8.97;;;;;;;;;;5073627;28;20233;-76
2023/11/02 14:40:06;;;;;;;15.50;11.60;;;;;;;;;;5073303;28;20204;-76
2023/11/02 14:42:32;;;;;;;11.27;8.37;;;;;;;;;;5073067;28;20610;-76
2023/11/02 14:45:00;;;;;;;14.63;10.40;;;;;;;;;;5073177;28;20212;-77
2023/11/02 14:47:27;;;;;;;9.40;8.20;;;;;;;;;;5073509;28;20292;-76
2023/11/02 14:49:55;;;;;;;21.77;7.90;;;;;;;;;;5073567;28;20622;-76
2023/11/02 14:52:22;;;;;;;30.90;23.20;;;;;;;;;;5072734;28;20211;-76
2023/11/02 14:54:48;;;;;;;29.00;18.90;;;;;;;;;;5073044;28;20261;-77